Time;durP1;ratioP1;P1;durP2;ratioP2;P2;SDS_P1;SDS_P2;PMS_P1;PMS_P2;Temp;Humidity;BMP_temperature;BMP_pressure;BME280_temperature;BME280_humidity;BME280_pressure;Samples;Min_cycle;Max_cycle;Signal;HPM_P1;HPM_P2
2022/03/04 00:02:03;;;;;;;21.77;8.88;;;3.80;99.90;;;;;;5034668;28;20029;-73
2022/03/04 00:04:30;;;;;;;18.92;7.65;;;3.70;99.90;;;;;;5052089;28;20055;-73
2022/03/04 00:06:56;;;;;;;18.77;8.70;;;3.70;99.90;;;;;;5052040;28;20029;-82
2022/03/04 00:09:22;;;;;;;18.80;8.27;;;3.60;99.90;;;;;;5035019;28;20029;-72
2022/03/04 00:11:48;;;;;;;20.70;8.82;;;3.60;99.90;;;;;;5052432;28;20044;-72
2022/03/04 00:14:14;;;;;;;25.85;7.30;;;3.70;99.90;;;;;;5051904;28;20045;-73
2022/03/04 00:16:40;;;;;;;15.40;7.47;;;3.70;99.90;;;;;;5051508;28;20037;-72
2022/03/04 00:19:07;;;;;;;16.47;7.03;;;3.60;99.90;;;;;;5034166;28;20308;-73
2022/03/04 00:21:51;;;;;;;19.48;9.25;;;3.60;99.90;;;;;;5052140;28;20044;-73
2022/03/04 00:24:21;;;;;;;26.65;9.25;;;3.60;99.90;;;;;;5052198;28;20157;-72
2022/03/04 00:26:48;;;;;;;15.45;7.88;;;3.50;99.90;;;;;;5034162;28;20029;-72
2022/03/04 00:29:14;;;;;;;21.77;9.88;;;3.50;99.90;;;;;;5050796;28;20386;-73
2022/03/04 00:31:40;;;;;;;22.23;8.63;;;3.50;99.90;;;;;;5052033;28;20039;-72
2022/03/04 00:34:07;;;;;;;19.10;7.85;;;3.40;99.90;;;;;;5053515;28;20041;-72
2022/03/04 00:36:33;;;;;;;20.27;8.60;;;3.40;99.90;;;;;;5054806;28;20036;-73
2022/03/04 00:38:59;;;;;;;29.10;9.50;;;3.40;99.90;;;;;;5054601;28;20047;-78
2022/03/04 00:41:24;;;;;;;23.80;7.50;;;3.40;99.90;;;;;;5053805;28;20033;-72
2022/03/04 00:43:51;;;;;;;21.77;9.37;;;3.40;99.90;;;;;;5036580;28;20032;-72
2022/03/04 00:46:17;;;;;;;22.73;9.45;;;3.30;99.90;;;;;;5054574;28;20500;-73
2022/03/04 00:48:44;;;;;;;25.10;8.88;;;3.30;99.90;;;;;;5054885;28;20033;-72
2022/03/04 00:51:11;;;;;;;16.67;7.07;;;3.30;99.90;;;;;;5054936;28;20031;-72
2022/03/04 00:53:37;;;;;;;24.45;8.98;;;3.30;99.90;;;;;;5037334;28;20041;-73
2022/03/04 00:56:03;;;;;;;18.77;8.03;;;3.30;99.90;;;;;;5037214;28;20033;-74
2022/03/04 00:58:29;;;;;;;25.92;9.88;;;3.30;99.90;;;;;;5037160;28;20266;-72
2022/03/04 01:00:55;;;;;;;24.37;8.23;;;3.20;99.90;;;;;;5037125;28;20094;-76
2022/03/04 01:03:20;;;;;;;17.13;7.13;;;3.20;99.90;;;;;;5037004;28;20036;-73
2022/03/04 01:05:46;;;;;;;20.03;8.90;;;3.20;99.90;;;;;;5054984;28;20092;-72
2022/03/04 01:08:12;;;;;;;23.67;9.77;;;3.10;99.90;;;;;;5055008;28;20051;-73
2022/03/04 01:10:38;;;;;;;21.57;8.97;;;3.10;99.90;;;;;;5054777;28;20055;-73
2022/03/04 01:13:04;;;;;;;27.43;9.53;;;3.10;99.90;;;;;;5036709;28;20119;-74
2022/03/04 01:15:30;;;;;;;19.60;7.20;;;3.00;99.90;;;;;;5054847;28;20044;-73
2022/03/04 01:17:56;;;;;;;19.77;8.35;;;3.00;99.90;;;;;;5046995;28;20028;-78
2022/03/04 01:20:22;;;;;;;14.57;7.87;;;3.00;99.90;;;;;;5036654;28;20032;-73
2022/03/04 01:22:48;;;;;;;25.50;9.68;;;3.00;99.90;;;;;;5037236;28;20701;-73
2022/03/04 01:25:14;;;;;;;25.30;8.80;;;3.00;99.90;;;;;;5034006;28;20393;-73
2022/03/04 01:27:41;;;;;;;19.23;8.35;;;3.00;99.90;;;;;;5054497;28;20052;-73
2022/03/04 01:30:09;;;;;;;25.05;9.73;;;2.90;99.90;;;;;;5054453;28;20033;-73
2022/03/04 01:32:36;;;;;;;21.85;9.48;;;2.90;99.90;;;;;;5049735;28;20025;-72
2022/03/04 01:35:02;;;;;;;;;;;2.80;99.90;;;;;;5031740;28;20474;-80
2022/03/04 01:37:28;;;;;;;24.25;8.77;;;2.80;99.90;;;;;;5054319;28;19940;-73
2022/03/04 01:39:54;;;;;;;22.07;8.93;;;2.80;99.90;;;;;;5054162;28;20061;-73
2022/03/04 01:42:20;;;;;;;21.17;9.47;;;2.80;99.90;;;;;;5039006;28;20029;-72
2022/03/04 01:44:46;;;;;;;24.90;10.20;;;2.70;99.90;;;;;;5057179;28;20292;-73
2022/03/04 01:47:12;;;;;;;24.00;9.38;;;2.70;99.90;;;;;;5057494;28;20349;-73
2022/03/04 01:49:40;;;;;;;21.27;9.20;;;2.60;99.90;;;;;;5058391;28;20116;-72
2022/03/04 01:52:07;;;;;;;28.13;10.68;;;2.60;99.90;;;;;;5040134;28;20288;-73
2022/03/04 01:54:33;;;;;;;20.25;8.98;;;2.70;99.90;;;;;;5061218;28;20037;-72
2022/03/04 01:56:59;;;;;;;20.07;9.00;;;2.60;99.90;;;;;;5061079;28;20408;-79
2022/03/04 01:59:25;;;;;;;20.05;8.73;;;2.60;99.90;;;;;;5057760;28;20337;-72
2022/03/04 02:01:54;;;;;;;22.23;8.93;;;2.60;99.90;;;;;;5057468;28;20108;-72
2022/03/04 02:04:21;;;;;;;20.25;9.30;;;2.60;99.90;;;;;;5057962;28;20029;-73
2022/03/04 02:06:47;;;;;;;26.35;10.38;;;2.40;99.90;;;;;;5040341;28;20078;-73
2022/03/04 02:09:13;;;;;;;20.13;9.32;;;2.40;99.90;;;;;;5054347;28;20331;-73
2022/03/04 02:11:41;;;;;;;21.87;9.37;;;2.30;99.90;;;;;;5054572;28;20035;-72
2022/03/04 02:14:07;;;;;;;21.35;9.35;;;2.30;99.90;;;;;;5039710;28;20191;-72
2022/03/04 02:16:40;;;;;;;26.70;9.50;;;2.20;99.90;;;;;;5058080;28;20042;-72
2022/03/04 02:19:05;;;;;;;22.50;9.55;;;2.20;99.90;;;;;;5057770;28;20108;-73
2022/03/04 02:21:32;;;;;;;23.60;7.43;;;2.10;99.90;;;;;;5039829;28;20100;-73
2022/03/04 02:23:59;;;;;;;25.15;9.35;;;2.10;99.90;;;;;;5039226;28;20032;-79
2022/03/04 02:26:24;;;;;;;24.38;9.95;;;2.10;99.90;;;;;;5057470;28;21342;-72
2022/03/04 02:28:53;;;;;;;20.23;9.43;;;2.00;99.90;;;;;;5058108;28;20021;-73
2022/03/04 02:31:21;;;;;;;21.00;9.48;;;2.00;99.90;;;;;;5043803;28;20057;-73
2022/03/04 02:33:48;;;;;;;24.58;9.80;;;2.00;99.90;;;;;;5057532;28;20029;-72
2022/03/04 02:36:14;;;;;;;;;;;1.90;99.90;;;;;;5044877;28;20048;-72
2022/03/04 02:38:40;;;;;;;22.55;8.50;;;1.90;99.90;;;;;;5039795;28;19916;-72
2022/03/04 02:41:06;;;;;;;23.05;9.60;;;1.90;99.90;;;;;;5057599;28;20025;-72
2022/03/04 02:43:32;;;;;;;24.52;9.43;;;1.90;99.90;;;;;;5039737;28;20494;-75
2022/03/04 02:45:58;;;;;;;19.57;9.70;;;1.90;99.90;;;;;;5055178;28;20033;-79
2022/03/04 02:48:24;;;;;;;26.83;10.18;;;1.90;99.90;;;;;;5057146;28;20312;-73
2022/03/04 02:50:50;;;;;;;26.17;10.67;;;1.80;99.90;;;;;;5056221;28;20104;-72
2022/03/04 02:53:16;;;;;;;23.48;9.35;;;1.80;99.90;;;;;;5056121;28;20116;-73
2022/03/04 02:55:42;;;;;;;30.10;10.47;;;1.80;99.90;;;;;;5022870;28;20117;-72
2022/03/04 02:58:07;;;;;;;24.77;10.33;;;1.70;99.90;;;;;;5057385;28;20046;-73
2022/03/04 03:00:34;;;;;;;26.30;10.30;;;1.70;99.90;;;;;;5039065;28;20075;-73
2022/03/04 03:03:00;;;;;;;19.45;9.15;;;1.60;99.90;;;;;;5039383;28;20025;-79
2022/03/04 03:05:26;;;;;;;26.73;8.20;;;1.60;99.90;;;;;;5038632;28;20033;-72
2022/03/04 03:07:52;;;;;;;24.92;10.93;;;1.60;99.90;;;;;;5056266;28;20033;-72
2022/03/04 03:10:18;;;;;;;21.90;8.37;;;1.60;99.90;;;;;;5057203;28;20033;-73
2022/03/04 03:12:44;;;;;;;15.20;6.93;;;1.50;99.90;;;;;;5056900;28;20029;-72
2022/03/04 03:15:11;;;;;;;27.92;10.18;;;1.40;99.90;;;;;;5056729;28;20045;-73
2022/03/04 03:17:38;;;;;;;29.25;10.00;;;1.30;99.90;;;;;;5057087;28;20320;-72
2022/03/04 03:20:05;;;;;;;18.25;7.60;;;1.20;99.90;;;;;;5056780;28;20463;-73
2022/03/04 03:22:31;;;;;;;23.08;10.93;;;1.20;99.90;;;;;;5056560;28;20051;-72
2022/03/04 03:24:57;;;;;;;16.17;7.37;;;1.10;99.90;;;;;;5056783;28;20427;-79
2022/03/04 03:27:22;;;;;;;24.30;9.43;;;1.00;99.90;;;;;;5056789;28;20036;-73
2022/03/04 03:29:48;;;;;;;27.00;9.90;;;1.00;99.90;;;;;;5056363;28;20339;-72
2022/03/04 03:32:14;;;;;;;17.47;7.20;;;0.90;99.90;;;;;;5056493;28;20060;-72
2022/03/04 03:34:40;;;;;;;29.95;11.32;;;0.80;99.90;;;;;;5057135;28;20059;-72
2022/03/04 03:37:07;;;;;;;24.33;9.73;;;0.60;99.90;;;;;;5048345;28;20025;-72
2022/03/04 03:39:33;;;;;;;;;;;0.60;99.90;;;;;;5039098;28;20037;-72
2022/03/04 03:41:59;;;;;;;23.80;9.80;;;0.50;99.90;;;;;;5038978;28;19908;-79
2022/03/04 03:44:25;;;;;;;23.07;10.13;;;0.40;99.90;;;;;;5056187;28;20037;-75
2022/03/04 03:46:51;;;;;;;23.83;9.90;;;0.40;99.90;;;;;;5052590;28;20343;-74
2022/03/04 03:49:17;;;;;;;25.93;11.07;;;0.40;99.90;;;;;;5045023;28;20032;-74
2022/03/04 03:51:43;;;;;;;32.80;11.43;;;0.40;99.90;;;;;;5037479;28;20044;-74
2022/03/04 03:54:08;;;;;;;22.70;10.67;;;0.30;99.90;;;;;;5056283;28;20037;-74
2022/03/04 03:56:34;;;;;;;27.60;10.13;;;0.20;99.90;;;;;;5056533;28;20261;-74
2022/03/04 03:59:00;;;;;;;26.10;10.93;;;0.10;99.90;;;;;;5055863;28;20021;-81
2022/03/04 04:01:26;;;;;;;26.37;10.33;;;0.20;99.90;;;;;;5056049;28;20312;-81
2022/03/04 04:03:52;;;;;;;24.00;9.57;;;0.20;99.90;;;;;;5055253;28;20025;-74
2022/03/04 04:06:18;;;;;;;26.80;9.38;;;0.20;99.90;;;;;;5038489;28;20029;-74
2022/03/04 04:08:43;;;;;;;21.33;8.53;;;0.20;99.90;;;;;;5038323;28;20048;-74
2022/03/04 04:11:09;;;;;;;24.33;10.00;;;0.20;99.90;;;;;;5038088;28;20112;-74
2022/03/04 04:13:35;;;;;;;24.13;10.43;;;0.20;99.90;;;;;;5055469;28;20036;-74
2022/03/04 04:16:01;;;;;;;29.37;10.40;;;0.20;99.90;;;;;;5055829;28;20021;-74
2022/03/04 04:18:27;;;;;;;15.17;7.03;;;0.10;99.90;;;;;;5055835;28;20047;-74
2022/03/04 04:20:53;;;;;;;29.43;10.43;;;0.10;99.90;;;;;;5055741;28;20055;-74
2022/03/04 04:23:18;;;;;;;34.67;11.83;;;0.20;99.90;;;;;;5056252;28;20029;-74
2022/03/04 04:25:44;;;;;;;17.73;7.77;;;0.10;99.90;;;;;;5055466;28;20323;-74
2022/03/04 04:28:10;;;;;;;25.43;10.27;;;0.00;99.90;;;;;;5055448;28;20029;-81
2022/03/04 04:30:35;;;;;;;18.77;8.40;;;0.10;99.90;;;;;;5055704;28;20036;-74
2022/03/04 04:33:01;;;;;;;26.53;10.30;;;0.00;99.90;;;;;;5037607;28;20025;-81
2022/03/04 04:35:27;;;;;;;30.40;10.80;;;-0.10;99.90;;;;;;5055833;28;20029;-74
2022/03/04 04:37:53;;;;;;;28.87;9.10;;;-0.10;99.90;;;;;;5055446;28;20054;-74
2022/03/04 04:40:19;;;;;;;26.07;9.63;;;0.00;99.90;;;;;;5055307;28;20021;-74
2022/03/04 04:42:44;;;;;;;20.67;8.63;;;-0.10;99.90;;;;;;5054996;28;20752;-74
2022/03/04 04:45:10;;;;;;;22.23;8.07;;;-0.20;99.90;;;;;;5055670;28;20043;-82
2022/03/04 04:47:36;;;;;;;29.43;9.87;;;-0.20;99.90;;;;;;5054731;28;20029;-74
2022/03/04 04:50:02;;;;;;;22.13;9.93;;;-0.20;99.90;;;;;;5054889;28;20147;-82
2022/03/04 04:52:28;;;;;;;26.58;9.85;;;-0.20;99.90;;;;;;5036446;28;20052;-74
2022/03/04 04:54:54;;;;;;;28.07;11.10;;;-0.20;99.90;;;;;;5036729;28;20041;-75
2022/03/04 04:57:20;;;;;;;25.27;10.43;;;-0.20;99.90;;;;;;5054947;28;20029;-74
2022/03/04 04:59:46;;;;;;;25.33;10.37;;;-0.30;99.90;;;;;;5054857;28;20037;-75
2022/03/04 05:02:11;;;;;;;29.38;10.73;;;-0.30;99.90;;;;;;5042789;28;20037;-74
2022/03/04 05:04:37;;;;;;;33.77;10.20;;;-0.30;99.90;;;;;;5055144;28;20343;-74
2022/03/04 05:07:03;;;;;;;25.47;10.13;;;-0.40;99.90;;;;;;5055090;28;20323;-74
2022/03/04 05:09:29;;;;;;;23.90;10.43;;;-0.30;99.90;;;;;;5054462;28;20032;-73
2022/03/04 05:11:54;;;;;;;24.17;10.43;;;-0.30;99.90;;;;;;5054482;28;20036;-81
2022/03/04 05:14:20;;;;;;;34.50;11.67;;;-0.40;99.90;;;;;;5036910;28;20120;-74
2022/03/04 05:16:46;;;;;;;17.03;7.93;;;-0.30;99.90;;;;;;5055112;28;20138;-74
2022/03/04 05:19:11;;;;;;;20.10;8.23;;;-0.30;99.90;;;;;;5054863;28;20623;-74
2022/03/04 05:21:37;;;;;;;25.07;9.90;;;-0.40;99.90;;;;;;5054862;28;20036;-74
2022/03/04 05:24:06;;;;;;;24.43;9.63;;;-0.40;99.90;;;;;;5055209;28;20055;-75
2022/03/04 05:26:42;;;;;;;26.85;10.70;;;-0.40;99.90;;;;;;5054866;28;20032;-74
2022/03/04 05:29:10;;;;;;;30.35;10.20;;;-0.50;99.90;;;;;;5054337;28;20048;-75
2022/03/04 05:31:41;;;;;;;35.80;10.15;;;-0.40;99.90;;;;;;5054520;28;20127;-73
2022/03/04 05:34:07;;;;;;;31.15;10.80;;;-0.40;99.90;;;;;;5054540;28;20021;-74
2022/03/04 05:36:34;;;;;;;28.38;11.07;;;-0.40;99.90;;;;;;5036989;28;20091;-75
2022/03/04 05:39:00;;;;;;;25.35;11.18;;;-0.50;99.90;;;;;;5054632;28;20112;-82
2022/03/04 05:41:26;;;;;;;14.70;6.80;;;-0.60;99.90;;;;;;5054412;28;20096;-74
2022/03/04 05:43:52;;;;;;;27.87;10.50;;;-0.70;99.90;;;;;;5054634;28;20025;-74
2022/03/04 05:46:18;;;;;;;28.10;9.38;;;-0.70;99.90;;;;;;5054683;28;20301;-73
2022/03/04 05:48:44;;;;;;;24.38;9.57;;;-0.70;99.90;;;;;;5053721;28;20037;-74
2022/03/04 05:51:10;;;;;;;26.20;9.98;;;-0.70;99.90;;;;;;5014851;28;20025;-74
2022/03/04 05:53:36;;;;;;;16.57;7.17;;;-0.70;99.90;;;;;;5051918;28;20037;-74
2022/03/04 05:56:07;;;;;;;29.23;10.60;;;-0.70;99.90;;;;;;5052841;28;20311;-82
2022/03/04 05:58:33;;;;;;;25.52;10.80;;;-0.70;99.90;;;;;;5054356;28;20041;-74
2022/03/04 06:00:59;;;;;;;22.55;8.32;;;-0.70;99.90;;;;;;5054295;28;20032;-82
2022/03/04 06:03:25;;;;;;;23.48;9.85;;;-0.80;99.90;;;;;;5036817;28;20025;-74
2022/03/04 06:05:51;;;;;;;22.77;9.40;;;-0.80;99.90;;;;;;5037084;28;20099;-74
2022/03/04 06:08:17;;;;;;;26.00;10.17;;;-0.80;99.90;;;;;;5053702;28;20239;-75
2022/03/04 06:10:44;;;;;;;25.35;9.57;;;-0.80;99.90;;;;;;5036550;28;20431;-74
2022/03/04 06:13:09;;;;;;;22.05;10.48;;;-0.80;99.90;;;;;;5054345;28;20106;-74
2022/03/04 06:15:35;;;;;;;23.20;8.97;;;-0.70;99.90;;;;;;5036382;28;20080;-74
2022/03/04 06:18:01;;;;;;;24.97;9.93;;;-0.80;99.90;;;;;;5054106;28;20075;-84
2022/03/04 06:20:27;;;;;;;22.55;7.53;;;-0.80;99.90;;;;;;5051592;28;20467;-74
2022/03/04 06:22:53;;;;;;;16.27;7.73;;;-0.80;99.90;;;;;;5034320;28;20175;-73
2022/03/04 06:25:19;;;;;;;26.70;9.40;;;-0.80;99.90;;;;;;5050036;28;20083;-74
2022/03/04 06:28:02;;;;;;;23.90;9.90;;;-0.80;99.90;;;;;;5055253;28;20091;-74
2022/03/04 06:30:30;;;;;;;25.90;9.68;;;-0.90;99.90;;;;;;5048405;28;20036;-83
2022/03/04 06:35:42;;;;;;;24.38;10.07;;;-0.80;99.90;;;;;;5052124;28;20507;-73
2022/03/04 06:38:09;;;;;;;31.73;9.18;;;-0.80;99.90;;;;;;5055953;28;20020;-74
2022/03/04 06:40:35;;;;;;;18.55;7.78;;;-0.80;99.90;;;;;;5055279;28;20021;-74
2022/03/04 06:43:00;;;;;;;19.27;8.63;;;-0.70;99.90;;;;;;5033838;28;20025;-82
2022/03/04 06:45:26;;;;;;;25.10;9.80;;;-0.70;99.90;;;;;;5054219;28;20262;-74
2022/03/04 06:47:52;;;;;;;28.53;10.93;;;-0.70;99.90;;;;;;5053397;28;20032;-79
2022/03/04 06:50:18;;;;;;;33.17;10.73;;;-0.70;99.90;;;;;;5053539;28;20028;-74
2022/03/04 06:52:44;;;;;;;36.80;10.55;;;-0.60;99.90;;;;;;5038430;28;20036;-74
2022/03/04 06:55:11;;;;;;;27.87;11.57;;;-0.50;99.90;;;;;;5032499;28;20029;-74
2022/03/04 06:57:39;;;;;;;32.47;9.68;;;-0.50;99.90;;;;;;5037361;28;20029;-74
2022/03/04 07:00:11;;;;;;;28.35;10.02;;;-0.40;99.90;;;;;;5053604;28;20025;-74
2022/03/04 07:02:38;;;;;;;31.60;12.52;;;-0.40;99.90;;;;;;5038644;28;20033;-74
2022/03/04 07:05:05;;;;;;;29.20;11.52;;;-0.20;99.90;;;;;;5038416;28;20021;-74
2022/03/04 07:07:31;;;;;;;29.13;11.15;;;-0.10;99.90;;;;;;5050795;28;20045;-74
2022/03/04 07:09:57;;;;;;;26.20;10.90;;;0.10;99.90;;;;;;5030026;28;20072;-83
2022/03/04 07:12:22;;;;;;;25.40;9.73;;;0.30;99.90;;;;;;5053732;28;20327;-74
2022/03/04 07:14:48;;;;;;;26.87;10.27;;;0.80;99.90;;;;;;5051261;28;20049;-74
2022/03/04 07:17:15;;;;;;;22.23;8.90;;;1.30;99.90;;;;;;5052910;28;20028;-75
2022/03/04 07:19:40;;;;;;;33.30;9.98;;;1.70;99.90;;;;;;5059780;28;20029;-74
2022/03/04 07:22:06;;;;;;;25.23;9.67;;;2.20;99.90;;;;;;5038153;28;20036;-75
2022/03/04 07:24:32;;;;;;;22.67;9.10;;;2.50;99.90;;;;;;5050569;28;20029;-73
2022/03/04 07:26:58;;;;;;;33.80;10.03;;;3.10;99.90;;;;;;5053604;28;20325;-83
2022/03/04 07:29:25;;;;;;;21.83;10.27;;;3.80;99.90;;;;;;5035303;28;20273;-74
2022/03/04 07:31:53;;;;;;;;;;;4.50;99.90;;;;;;5056168;28;20032;-74
2022/03/04 07:34:19;;;;;;;22.40;8.43;;;4.90;99.90;;;;;;5038194;28;20215;-73
2022/03/04 07:36:46;;;;;;;24.95;9.98;;;5.10;99.90;;;;;;5038101;28;20021;-74
2022/03/04 07:39:11;;;;;;;24.95;9.23;;;5.40;99.90;;;;;;5050622;28;20423;-83
2022/03/04 07:41:38;;;;;;;29.47;8.83;;;5.40;99.90;;;;;;5053820;28;20037;-74
2022/03/04 07:44:04;;;;;;;19.20;8.73;;;5.20;99.90;;;;;;5058914;28;20346;-76
2022/03/04 07:46:30;;;;;;;23.35;10.88;;;5.10;99.90;;;;;;5055037;28;20028;-74
2022/03/04 07:48:56;;;;;;;19.93;7.03;;;5.40;99.90;;;;;;5032961;28;20434;-74
2022/03/04 07:51:22;;;;;;;18.97;8.63;;;5.70;99.90;;;;;;5054238;28;20028;-73
2022/03/04 07:53:48;;;;;;;29.83;9.60;;;5.50;99.90;;;;;;5054740;28;20021;-74
2022/03/04 07:56:14;;;;;;;15.30;6.47;;;5.50;99.90;;;;;;5050298;28;20412;-75
2022/03/04 07:58:40;;;;;;;15.57;7.77;;;5.40;99.90;;;;;;5052672;28;20411;-74
2022/03/04 08:01:05;;;;;;;20.77;6.33;;;5.40;99.90;;;;;;5050572;28;20025;-74
2022/03/04 08:03:31;;;;;;;9.53;4.77;;;5.50;99.90;;;;;;5054559;28;20025;-74
2022/03/04 08:05:57;;;;;;;18.23;8.43;;;5.20;99.90;;;;;;5049643;28;20323;-75
2022/03/04 08:08:23;;;;;;;19.67;9.10;;;5.30;99.90;;;;;;5052443;28;20096;-74
2022/03/04 08:10:49;;;;;;;19.07;8.57;;;5.60;99.90;;;;;;5029860;28;20185;-74
2022/03/04 08:13:14;;;;;;;19.87;8.83;;;5.50;99.90;;;;;;5052522;28;20119;-78
2022/03/04 08:15:41;;;;;;;24.00;8.13;;;5.50;99.90;;;;;;5046122;28;20047;-75
2022/03/04 08:18:07;;;;;;;17.33;8.13;;;5.50;99.90;;;;;;5054788;28;20027;-75
2022/03/04 08:20:33;;;;;;;24.40;8.70;;;6.00;99.90;;;;;;5033492;28;20029;-75
2022/03/04 08:22:59;;;;;;;17.70;7.30;;;6.00;99.90;;;;;;5044251;28;20021;-74
2022/03/04 08:25:25;;;;;;;15.63;6.30;;;5.80;99.90;;;;;;5054637;28;20332;-75
2022/03/04 08:27:52;;;;;;;18.27;7.73;;;5.70;99.90;;;;;;5055053;28;20029;-74
2022/03/04 08:30:18;;;;;;;17.63;7.28;;;5.70;99.90;;;;;;5049555;28;20090;-75
2022/03/04 08:32:44;;;;;;;23.97;8.77;;;6.00;99.90;;;;;;5050159;28;20029;-75
2022/03/04 08:35:10;;;;;;;22.20;8.83;;;5.70;99.90;;;;;;5043048;28;20439;-75
2022/03/04 08:37:37;;;;;;;21.13;9.57;;;5.90;99.90;;;;;;5034486;28;20404;-75
2022/03/04 08:40:08;;;;;;;19.90;8.02;;;6.50;99.90;;;;;;5049024;28;20040;-75
2022/03/04 08:42:35;;;;;;;22.27;9.32;;;6.40;99.90;;;;;;5053153;28;20028;-75
2022/03/04 08:45:01;;;;;;;21.85;9.13;;;6.30;99.90;;;;;;5030463;28;20095;-75
2022/03/04 08:47:26;;;;;;;18.87;6.57;;;6.20;99.90;;;;;;5050223;28;20408;-83
2022/03/04 08:49:52;;;;;;;21.37;7.57;;;6.20;99.90;;;;;;5046542;28;20423;-75
2022/03/04 08:52:18;;;;;;;19.30;8.07;;;6.50;99.90;;;;;;5054274;28;20112;-75
2022/03/04 08:54:44;;;;;;;19.23;8.77;;;6.50;99.90;;;;;;5050199;28;20095;-75
2022/03/04 08:57:09;;;;;;;23.20;7.03;;;6.80;99.90;;;;;;5053629;28;20032;-75
2022/03/04 08:59:35;;;;;;;24.87;9.80;;;7.10;99.90;;;;;;5031932;28;20036;-83
2022/03/04 09:02:01;;;;;;;19.63;9.70;;;7.00;99.90;;;;;;5028192;28;20029;-83
2022/03/04 09:04:27;;;;;;;19.75;8.95;;;7.40;99.90;;;;;;5054100;28;20021;-83
2022/03/04 09:06:53;;;;;;;19.30;9.23;;;7.50;99.90;;;;;;5032601;28;20040;-75
2022/03/04 09:09:18;;;;;;;24.17;11.17;;;7.80;99.90;;;;;;5050163;28;20035;-75
2022/03/04 09:11:44;;;;;;;17.57;6.23;;;7.70;99.90;;;;;;5052294;28;20067;-75
2022/03/04 09:14:11;;;;;;;20.57;9.03;;;7.00;99.90;;;;;;5054927;28;20076;-84
2022/03/04 09:16:37;;;;;;;22.17;9.25;;;6.70;99.90;;;;;;5054455;28;20022;-75
2022/03/04 09:19:03;;;;;;;18.77;8.37;;;6.90;99.90;;;;;;5046108;28;20044;-75
2022/03/04 09:21:29;;;;;;;22.47;9.03;;;7.30;99.90;;;;;;5045835;28;20059;-76
2022/03/04 09:23:54;;;;;;;20.43;9.50;;;7.40;99.90;;;;;;5054235;28;20056;-75
2022/03/04 09:26:21;;;;;;;22.03;8.20;;;7.20;99.90;;;;;;5045192;28;20479;-78
2022/03/04 09:28:47;;;;;;;14.07;6.33;;;7.20;99.90;;;;;;5036470;28;20331;-75
2022/03/04 09:31:13;;;;;;;19.42;7.50;;;6.90;99.90;;;;;;5053798;28;20273;-78
2022/03/04 09:33:39;;;;;;;22.52;9.65;;;7.10;99.90;;;;;;5053732;28;20029;-75
2022/03/04 09:36:06;;;;;;;22.37;10.10;;;7.40;99.90;;;;;;5053680;28;20028;-85
2022/03/04 09:38:31;;;;;;;24.20;9.63;;;7.70;99.90;;;;;;5036078;28;20346;-75
2022/03/04 09:40:59;;;;;;;19.33;9.20;;;7.90;99.90;;;;;;5035247;28;20029;-75
2022/03/04 09:43:25;;;;;;;18.83;7.50;;;8.10;99.90;;;;;;5034363;28;20035;-75
2022/03/04 09:45:51;;;;;;;18.83;9.32;;;8.00;99.90;;;;;;5053419;28;20104;-76
2022/03/04 09:48:17;;;;;;;20.13;8.70;;;7.90;99.90;;;;;;5038072;28;20362;-76
2022/03/04 09:50:46;;;;;;;16.30;8.48;;;8.20;99.90;;;;;;5050269;28;20339;-75
2022/03/04 09:53:12;;;;;;;17.33;7.78;;;8.30;99.90;;;;;;5047761;28;20079;-75
2022/03/04 09:55:39;;;;;;;17.38;8.00;;;8.50;99.90;;;;;;5054346;28;20055;-75
2022/03/04 09:58:10;;;;;;;24.33;7.95;;;8.30;99.90;;;;;;5036553;28;20037;-76
2022/03/04 10:00:36;;;;;;;20.13;10.23;;;8.30;99.90;;;;;;5053977;28;20032;-75
2022/03/04 10:03:01;;;;;;;17.70;8.40;;;8.30;99.90;;;;;;5039430;28;20115;-82
2022/03/04 10:05:27;;;;;;;21.07;7.57;;;8.40;99.90;;;;;;5057332;28;20112;-76
2022/03/04 10:07:53;;;;;;;16.23;7.10;;;8.50;99.90;;;;;;5056993;28;20041;-76
2022/03/04 10:10:22;;;;;;;21.27;8.93;;;8.40;99.90;;;;;;5038933;28;20075;-75
2022/03/04 10:12:54;;;;;;;24.08;8.75;;;8.10;99.90;;;;;;5058472;28;20384;-82
2022/03/04 10:15:20;;;;;;;17.10;8.60;;;8.20;99.90;;;;;;5040175;28;20055;-76
2022/03/04 10:18:01;;;;;;;13.90;6.95;;;8.40;99.90;;;;;;5040205;28;20060;-75
2022/03/04 10:20:42;;;;;;;16.98;8.13;;;8.40;99.80;;;;;;5057509;28;20083;-75
2022/03/04 10:23:20;;;;;;;21.77;9.60;;;8.20;99.90;;;;;;5055642;28;20087;-75
2022/03/04 10:25:57;;;;;;;13.63;6.75;;;8.30;99.90;;;;;;5057910;28;20029;-76
2022/03/04 10:28:26;;;;;;;20.38;8.95;;;8.30;99.90;;;;;;5058032;28;20060;-75
2022/03/04 10:30:53;;;;;;;17.17;8.43;;;8.40;99.90;;;;;;5058024;28;20048;-82
2022/03/04 10:33:21;;;;;;;20.33;9.77;;;8.40;99.90;;;;;;5057178;28;20017;-76
2022/03/04 10:36:05;;;;;;;21.83;9.32;;;8.40;99.90;;;;;;5039930;28;20029;-76
2022/03/04 10:38:30;;;;;;;23.27;8.93;;;8.50;99.90;;;;;;5014547;28;20108;-76
2022/03/04 10:40:56;;;;;;;19.92;9.23;;;8.50;99.90;;;;;;5047973;28;20451;-76
2022/03/04 10:43:31;;;;;;;17.77;9.00;;;8.50;99.90;;;;;;5048402;28;20032;-75
2022/03/04 10:46:03;;;;;;;20.83;10.40;;;8.30;99.90;;;;;;5050040;28;20017;-80
2022/03/04 10:48:30;;;;;;;22.45;9.80;;;8.20;99.90;;;;;;5057456;28;20293;-75
2022/03/04 10:50:58;;;;;;;22.25;10.63;;;8.20;99.90;;;;;;5057399;28;20040;-76
2022/03/04 10:53:32;;;;;;;18.95;9.65;;;8.40;99.90;;;;;;5057611;28;20025;-76
2022/03/04 10:56:15;;;;;;;19.73;9.30;;;8.60;99.90;;;;;;5056649;28;20017;-80
2022/03/04 10:58:41;;;;;;;18.80;9.10;;;8.60;99.90;;;;;;5057204;28;20147;-82
2022/03/04 11:01:12;;;;;;;23.98;9.90;;;8.70;99.90;;;;;;5053576;28;20028;-76
2022/03/04 11:03:41;;;;;;;23.10;10.35;;;8.80;99.90;;;;;;5056455;28;20056;-77
2022/03/04 11:06:12;;;;;;;19.42;9.40;;;9.00;99.90;;;;;;5056266;28;20025;-76
2022/03/04 11:08:38;;;;;;;21.52;9.80;;;9.10;99.90;;;;;;5056713;28;20122;-83
2022/03/04 11:11:05;;;;;;;17.85;7.80;;;9.10;99.60;;;;;;5037987;28;20043;-77
2022/03/04 11:13:33;;;;;;;;;;;9.10;99.30;;;;;;5038608;28;20021;-75
2022/03/04 11:16:00;;;;;;;29.20;10.20;;;9.00;98.80;;;;;;5055468;28;20311;-76
2022/03/04 11:18:26;;;;;;;17.50;9.00;;;8.90;99.10;;;;;;5055683;28;20020;-76
2022/03/04 11:20:54;;;;;;;19.30;8.53;;;8.90;99.40;;;;;;5046664;28;20386;-76
2022/03/04 11:23:25;;;;;;;21.80;10.07;;;9.00;99.50;;;;;;5009509;28;20051;-76
2022/03/04 11:26:00;;;;;;;19.35;10.07;;;9.10;99.40;;;;;;5041217;28;20056;-76
2022/03/04 11:28:49;;;;;;;19.95;9.30;;;9.10;99.40;;;;;;5044462;28;20022;-79
2022/03/04 11:31:20;;;;;;;29.27;10.25;;;9.20;98.60;;;;;;5028738;28;20025;-80
2022/03/04 11:33:51;;;;;;;16.33;7.15;;;9.30;98.40;;;;;;5027958;28;20112;-76
2022/03/04 11:36:25;;;;;;;16.77;8.10;;;9.30;98.20;;;;;;5041256;28;20091;-79
2022/03/04 11:38:53;;;;;;;19.95;9.93;;;9.00;98.80;;;;;;5033445;28;20025;-76
2022/03/04 11:41:34;;;;;;;19.27;8.98;;;9.00;99.20;;;;;;5030065;28;20029;-81
2022/03/04 11:44:07;;;;;;;20.58;9.95;;;9.30;99.00;;;;;;5036976;28;20031;-80
2022/03/04 11:46:46;;;;;;;21.02;9.23;;;9.50;98.20;;;;;;5055306;28;20036;-80
2022/03/04 11:49:26;;;;;;;17.48;9.27;;;9.70;97.90;;;;;;5038094;28;20415;-77
2022/03/04 11:52:10;;;;;;;22.40;9.80;;;10.00;97.90;;;;;;5055571;28;20102;-82
2022/03/04 11:54:36;;;;;;;24.05;9.90;;;10.20;97.00;;;;;;5038295;28;20083;-77
2022/03/04 11:57:19;;;;;;;23.77;9.40;;;10.20;96.30;;;;;;5054981;28;20025;-80
2022/03/04 11:59:55;;;;;;;16.90;8.50;;;10.10;97.10;;;;;;5047823;28;20102;-82
2022/03/04 12:02:25;;;;;;;18.85;7.75;;;10.00;96.00;;;;;;5047940;28;20028;-82
2022/03/04 12:05:14;;;;;;;14.80;7.78;;;9.90;97.20;;;;;;5038869;28;20439;-76
2022/03/04 12:07:56;;;;;;;16.23;8.27;;;10.10;96.20;;;;;;5055020;28;20033;-78
2022/03/04 12:10:53;;;;;;;13.57;6.20;;;10.20;95.10;;;;;;5038093;28;20025;-77
2022/03/04 12:13:27;;;;;;;20.08;7.60;;;10.30;94.40;;;;;;5006066;28;20041;-77
2022/03/04 12:16:00;;;;;;;15.40;8.40;;;10.10;95.30;;;;;;5055710;28;20040;-76
2022/03/04 12:18:57;;;;;;;18.73;7.80;;;10.10;94.30;;;;;;5036710;28;20419;-76
2022/03/04 12:21:25;;;;;;;14.27;6.40;;;10.20;94.90;;;;;;5026915;28;20044;-77
2022/03/04 12:24:13;;;;;;;14.63;6.88;;;10.10;93.50;;;;;;5053155;28;20029;-78
2022/03/04 12:26:44;;;;;;;17.77;7.47;;;10.10;93.60;;;;;;5033535;28;20331;-76
2022/03/04 12:29:13;;;;;;;13.57;7.10;;;10.20;94.90;;;;;;5050366;28;20032;-81
2022/03/04 12:31:41;;;;;;;16.88;7.78;;;10.30;94.60;;;;;;5050201;28;20037;-81
2022/03/04 12:34:22;;;;;;;17.02;8.38;;;10.50;94.20;;;;;;5035559;28;20090;-77
2022/03/04 12:36:52;;;;;;;17.63;7.85;;;10.50;94.50;;;;;;5035742;28;20415;-80
2022/03/04 12:39:19;;;;;;;15.35;6.88;;;10.60;93.70;;;;;;5037455;28;20036;-77
2022/03/04 12:41:46;;;;;;;15.73;7.40;;;10.70;93.70;;;;;;5051256;28;20029;-76
2022/03/04 12:44:11;;;;;;;15.73;7.38;;;10.80;93.70;;;;;;5053300;28;20082;-76
2022/03/04 12:46:41;;;;;;;14.63;7.73;;;10.70;93.40;;;;;;5054501;28;20036;-77
2022/03/04 12:49:09;;;;;;;17.65;7.53;;;10.60;92.70;;;;;;5040428;28;20056;-77